createdAt,value
2023-01-21T00:00:11.105Z,99617.66
2023-01-21T00:02:37.941Z,99611.06
2023-01-21T00:05:05.033Z,99609.84
2023-01-21T00:07:31.698Z,99609.03
2023-01-21T00:09:58.613Z,99605.31
2023-01-21T00:12:25.404Z,99588.63
2023-01-21T00:14:52.138Z,99600.31
2023-01-21T00:17:18.839Z,99606.63
2023-01-21T00:19:45.533Z,99607.31
2023-01-21T00:22:12.387Z,99617.78
2023-01-21T00:24:39.156Z,99624.22
2023-01-21T00:27:05.951Z,99622.88
2023-01-21T00:29:32.710Z,99612.69
2023-01-21T00:31:59.524Z,99599.13
2023-01-21T00:34:26.230Z,99622.22
2023-01-21T00:36:55.096Z,99606.34
2023-01-21T00:39:23.081Z,99618.16
2023-01-21T00:41:50.902Z,99625.03
2023-01-21T00:44:19.291Z,99610.00
2023-01-21T00:46:46.274Z,99607.16
2023-01-21T00:49:13.077Z,99602.34
2023-01-21T00:51:39.833Z,99590.53
2023-01-21T00:54:06.567Z,99587.97
2023-01-21T00:56:33.363Z,99605.28
2023-01-21T00:59:00.272Z,99602.63
2023-01-21T01:01:28.085Z,99590.53
2023-01-21T01:03:54.927Z,99601.53
2023-01-21T01:06:23.403Z,99598.19
2023-01-21T01:08:50.910Z,99603.81
2023-01-21T01:11:18.506Z,99616.03
2023-01-21T01:13:45.471Z,99602.22
2023-01-21T01:16:14.492Z,99595.22
2023-01-21T01:18:41.366Z,99600.47
2023-01-21T01:21:15.242Z,99584.63
2023-01-21T01:23:42.507Z,99590.25
2023-01-21T01:26:12.976Z,99588.94
2023-01-21T01:28:39.912Z,99592.56
2023-01-21T01:31:09.064Z,99604.47
2023-01-21T01:33:36.175Z,99596.16
2023-01-21T01:36:05.049Z,99605.28
2023-01-21T01:38:32.120Z,99586.50
2023-01-21T01:40:59.235Z,99608.78
2023-01-21T01:43:47.639Z,99598.56
2023-01-21T01:46:14.987Z,99590.78
2023-01-21T01:48:44.641Z,99583.13
2023-01-21T01:51:13.636Z,99581.78
2023-01-21T01:53:42.959Z,99601.41
2023-01-21T01:56:09.910Z,99594.03
2023-01-21T01:58:37.900Z,99600.31
2023-01-21T02:01:04.756Z,99569.97
2023-01-21T02:03:46.057Z,99591.88
2023-01-21T02:06:17.840Z,99599.13
2023-01-21T02:08:47.427Z,99588.66
2023-01-21T02:11:19.115Z,99591.06
2023-01-21T02:13:57.734Z,99584.88
2023-01-21T02:16:59.433Z,99596.81
2023-01-21T02:19:26.072Z,99591.84
2023-01-21T02:22:03.789Z,99589.72
2023-01-21T02:24:50.012Z,99557.50
2023-01-21T02:27:30.706Z,99586.25
2023-01-21T02:30:22.286Z,99586.38
2023-01-21T02:33:07.076Z,99578.72
2023-01-21T02:36:25.818Z,99581.13
2023-01-21T02:39:13.101Z,99592.13
2023-01-21T02:41:39.750Z,99541.91
2023-01-21T02:44:24.972Z,99584.34
2023-01-21T02:47:16.756Z,99579.78
2023-01-21T02:49:58.450Z,99577.34
2023-01-21T02:52:26.267Z,99577.09
2023-01-21T02:55:00.044Z,99582.47
2023-01-21T02:57:34.170Z,99599.28
2023-01-21T03:00:04.357Z,99581.66
2023-01-21T03:02:44.072Z,99578.03
2023-01-21T03:05:28.950Z,99589.72
2023-01-21T03:08:11.455Z,99575.47
2023-01-21T03:10:50.514Z,99589.97
2023-01-21T03:14:00.631Z,99596.81
2023-01-21T03:16:51.349Z,99569.44
2023-01-21T03:19:21.750Z,99571.59
2023-01-21T03:21:51.114Z,99572.38
2023-01-21T03:24:19.322Z,99567.16
2023-01-21T03:26:49.664Z,99569.19
2023-01-21T03:29:22.113Z,99564.59
2023-01-21T03:31:53.763Z,99574.28
2023-01-21T03:34:22.687Z,99568.38
2023-01-21T03:36:55.413Z,99568.75
2023-01-21T03:39:46.809Z,99574.00
2023-01-21T03:42:14.579Z,99576.03
2023-01-21T03:44:42.132Z,99567.69
2023-01-21T03:47:08.747Z,99579.38
2023-01-21T03:49:39.415Z,99568.88
2023-01-21T03:52:08.873Z,99560.97
2023-01-21T03:54:38.510Z,99569.03
2023-01-21T03:57:05.652Z,99553.03
2023-01-21T03:59:33.161Z,99556.66
2023-01-21T04:01:59.839Z,99570.91
2023-01-21T04:04:26.540Z,99552.22
2023-01-21T04:06:53.238Z,99555.31
2023-01-21T04:09:20.052Z,99548.63
2023-01-21T04:11:46.786Z,99547.28
2023-01-21T04:14:13.564Z,99554.25
2023-01-21T04:16:40.273Z,99547.00
2023-01-21T04:19:07.091Z,99551.94
2023-01-21T04:21:33.788Z,99557.41
2023-01-21T04:24:00.566Z,99562.03
2023-01-21T04:26:27.242Z,99562.16
2023-01-21T04:28:53.955Z,99561.56
2023-01-21T04:31:20.740Z,99560.44
2023-01-21T04:33:47.460Z,99558.53
2023-01-21T04:36:14.207Z,99553.25
2023-01-21T04:38:41.135Z,99557.44
2023-01-21T04:41:07.838Z,99576.03
2023-01-21T04:43:34.599Z,99576.00
2023-01-21T04:46:01.482Z,99580.03
2023-01-21T04:48:28.282Z,99592.94
2023-01-21T04:50:55.024Z,99593.44
2023-01-21T04:53:21.762Z,99593.94
2023-01-21T04:55:50.972Z,99609.81
2023-01-21T04:58:17.964Z,99621.16
2023-01-21T05:00:44.717Z,99633.78
2023-01-21T05:03:11.422Z,99628.13
2023-01-21T05:05:38.276Z,99620.28
2023-01-21T05:08:05.181Z,99635.66
2023-01-21T05:10:31.944Z,99644.50
2023-01-21T05:12:59.512Z,99650.97
2023-01-21T05:15:30.171Z,99658.56
2023-01-21T05:17:56.921Z,99655.94
2023-01-21T05:20:23.738Z,99660.09
2023-01-21T05:22:50.518Z,99667.63
2023-01-21T05:25:17.316Z,99677.56
2023-01-21T05:27:43.982Z,99675.00
2023-01-21T05:30:11.204Z,99674.47
2023-01-21T05:32:37.954Z,99686.78
2023-01-21T05:35:05.453Z,99682.09
2023-01-21T05:37:32.267Z,99693.66
2023-01-21T05:39:59.025Z,99693.94
2023-01-21T05:42:25.914Z,99670.28
2023-01-21T05:44:52.786Z,99684.03
2023-01-21T05:47:19.497Z,99680.53
2023-01-21T05:49:46.162Z,99697.16
2023-01-21T05:52:13.222Z,99685.75
2023-01-21T05:54:52.459Z,99692.22
2023-01-21T05:57:22.855Z,99691.41
2023-01-21T05:59:49.640Z,99693.44
2023-01-21T06:02:16.427Z,99683.75
2023-01-21T06:04:43.140Z,99698.50
2023-01-21T06:07:09.837Z,99691.75
2023-01-21T06:09:36.532Z,99707.09
2023-01-21T06:12:03.246Z,99707.50
2023-01-21T06:14:30.013Z,99721.34
2023-01-21T06:16:56.691Z,99730.06
2023-01-21T06:19:23.456Z,99731.00
2023-01-21T06:21:51.895Z,99727.25
2023-01-21T06:24:18.642Z,99729.03
2023-01-21T06:26:45.469Z,99728.44
2023-01-21T06:29:12.197Z,99735.59
2023-01-21T06:31:39.619Z,99736.41
2023-01-21T06:34:06.580Z,99729.03
2023-01-21T06:36:33.244Z,99724.31
2023-01-21T06:38:59.918Z,99727.56
2023-01-21T06:41:26.685Z,99718.69
2023-01-21T06:43:53.381Z,99725.38
2023-01-21T06:46:20.191Z,99713.56
2023-01-21T06:48:47.078Z,99717.34
2023-01-21T06:51:13.812Z,99707.00
2023-01-21T06:53:41.281Z,99721.88
2023-01-21T06:56:08.194Z,99738.56
2023-01-21T06:58:34.910Z,99740.44
2023-01-21T07:01:01.678Z,99744.47
2023-01-21T07:03:29.391Z,99731.56
2023-01-21T07:05:56.074Z,99741.00
2023-01-21T07:08:22.816Z,99752.00
2023-01-21T07:10:49.588Z,99757.78
2023-01-21T07:13:16.347Z,99766.75
2023-01-21T07:15:43.135Z,99767.31
2023-01-21T07:18:09.894Z,99756.53
2023-01-21T07:20:37.687Z,99766.63
2023-01-21T07:23:05.072Z,99768.13
2023-01-21T07:25:32.503Z,99775.09
2023-01-21T07:27:59.576Z,99774.72
2023-01-21T07:30:26.428Z,99775.09
2023-01-21T07:32:53.220Z,99781.84
2023-01-21T07:35:20.272Z,99776.97
2023-01-21T07:37:47.091Z,99779.66
2023-01-21T07:40:14.016Z,99777.25
2023-01-21T07:42:40.740Z,99774.53
2023-01-21T07:45:07.902Z,99784.50
2023-01-21T07:47:34.668Z,99785.19
2023-01-21T07:50:05.065Z,99788.56
2023-01-21T07:52:32.772Z,99785.31
2023-01-21T07:54:59.456Z,99781.56
2023-01-21T07:57:26.266Z,99794.72
2023-01-21T07:59:53.096Z,99788.00
2023-01-21T08:02:19.880Z,99789.06
2023-01-21T08:04:46.690Z,99774.72
2023-01-21T08:07:13.421Z,99775.38
2023-01-21T08:09:40.791Z,99762.47
2023-01-21T08:12:08.537Z,99771.34
2023-01-21T08:14:35.398Z,99783.47
2023-01-21T08:17:02.419Z,99792.31
2023-01-21T08:19:29.207Z,99804.16
2023-01-21T08:21:55.980Z,99809.69
2023-01-21T08:24:22.795Z,99814.09
2023-01-21T08:26:49.499Z,99812.75
2023-01-21T08:29:16.420Z,99825.25
2023-01-21T08:31:43.229Z,99833.47
2023-01-21T08:34:12.707Z,99839.91
2023-01-21T08:36:39.862Z,99856.31
2023-01-21T08:39:06.583Z,99858.06
2023-01-21T08:41:33.960Z,99850.13
2023-01-21T08:44:00.801Z,99867.75
2023-01-21T08:46:27.726Z,99863.88
2023-01-21T08:48:54.547Z,99845.81
2023-01-21T08:51:21.325Z,99848.91
2023-01-21T08:53:50.109Z,99841.78
2023-01-21T08:56:17.427Z,99844.06
2023-01-21T08:58:44.819Z,99835.84
2023-01-21T09:01:13.817Z,99831.66
2023-01-21T09:03:40.779Z,99837.06
2023-01-21T09:06:08.508Z,99844.22
2023-01-21T09:08:36.580Z,99854.63
2023-01-21T09:11:06.957Z,99857.75
2023-01-21T09:13:37.466Z,99864.72
2023-01-21T09:16:09.811Z,99850.34
2023-01-21T09:18:37.692Z,99858.41
2023-01-21T09:21:05.996Z,99842.50
2023-01-21T09:23:34.769Z,99848.47
2023-01-21T09:26:03.715Z,99855.72
2023-01-21T09:28:32.005Z,99845.69
2023-01-21T09:31:00.816Z,99851.84
2023-01-21T09:33:32.244Z,99846.06
2023-01-21T09:36:01.340Z,99861.47
2023-01-21T09:38:29.109Z,99854.22
2023-01-21T09:41:18.639Z,99864.69
2023-01-21T09:43:51.358Z,99861.03
2023-01-21T09:46:43.250Z,99870.78
2023-01-21T09:49:17.619Z,99864.19
2023-01-21T09:51:52.506Z,99865.00
2023-01-21T09:54:31.341Z,99854.59
2023-01-21T09:57:09.710Z,99853.97
2023-01-21T09:59:50.379Z,99849.31
2023-01-21T10:02:53.455Z,99847.78
2023-01-21T10:05:35.585Z,99845.72
2023-01-21T10:08:32.562Z,99846.69
2023-01-21T10:11:22.183Z,99860.31
2023-01-21T10:14:22.855Z,99855.41
2023-01-21T10:17:07.319Z,99852.63
2023-01-21T10:19:40.348Z,99859.09
2023-01-21T10:22:17.514Z,99847.88
2023-01-21T10:24:52.659Z,99852.50
2023-01-21T10:27:22.353Z,99859.72
2023-01-21T10:29:54.000Z,99850.59
2023-01-21T10:32:27.507Z,99840.84
2023-01-21T10:34:57.218Z,99854.41
2023-01-21T10:37:41.510Z,99850.47
2023-01-21T10:40:18.873Z,99845.88
2023-01-21T10:43:19.845Z,99849.19
2023-01-21T10:45:58.772Z,99845.22
2023-01-21T10:48:38.863Z,99844.72
2023-01-21T10:51:30.340Z,99836.56
2023-01-21T10:54:07.070Z,99837.03
2023-01-21T10:56:45.761Z,99830.94
2023-01-21T10:59:19.132Z,99825.56
2023-01-21T11:01:47.770Z,99818.38
2023-01-21T11:04:23.526Z,99830.63
2023-01-21T11:07:01.545Z,99834.88
2023-01-21T11:09:41.939Z,99833.47
2023-01-21T11:12:14.060Z,99835.94
2023-01-21T11:14:40.909Z,99839.78
2023-01-21T11:17:07.992Z,99836.44
2023-01-21T11:19:34.771Z,99849.81
2023-01-21T11:22:01.500Z,99839.06
2023-01-21T11:24:29.893Z,99848.78
2023-01-21T11:26:59.463Z,99839.94
2023-01-21T11:29:26.933Z,99846.03
2023-01-21T11:32:03.892Z,99841.44
2023-01-21T11:34:31.338Z,99849.13
2023-01-21T11:37:03.059Z,99851.38
2023-01-21T11:39:35.803Z,99846.59
2023-01-21T11:42:17.300Z,99848.22
2023-01-21T11:45:06.851Z,99849.59
2023-01-21T11:47:48.090Z,99848.19
2023-01-21T11:50:35.906Z,99844.03
2023-01-21T11:53:12.387Z,99844.63
2023-01-21T11:55:49.904Z,99844.25
2023-01-21T11:58:18.982Z,99838.72
2023-01-21T12:00:48.138Z,99835.75
2023-01-21T12:03:26.076Z,99844.50
2023-01-21T12:05:54.133Z,99835.47
2023-01-21T12:08:31.405Z,99850.03
2023-01-21T12:11:04.089Z,99833.56
2023-01-21T12:13:46.095Z,99834.00
2023-01-21T12:16:22.215Z,99833.41
2023-01-21T12:19:03.082Z,99842.19
2023-01-21T12:21:40.445Z,99841.03
2023-01-21T12:24:31.535Z,99847.41
2023-01-21T12:27:04.906Z,99830.47
2023-01-21T12:29:50.258Z,99848.94
2023-01-21T12:32:31.347Z,99843.59
2023-01-21T12:35:13.641Z,99844.16
2023-01-21T12:37:49.719Z,99856.47
2023-01-21T12:40:34.804Z,99849.03
2023-01-21T12:43:08.415Z,99851.34
2023-01-21T12:45:53.043Z,99845.81
2023-01-21T12:48:37.817Z,99858.22
2023-01-21T12:51:18.952Z,99862.09
2023-01-21T12:53:55.354Z,99853.69
2023-01-21T12:56:53.397Z,99857.38
2023-01-21T12:59:46.613Z,99859.97
2023-01-21T13:02:38.847Z,99869.06
2023-01-21T13:05:18.003Z,99871.34
2023-01-21T13:08:09.650Z,99870.03
2023-01-21T13:10:40.956Z,99870.00
2023-01-21T13:13:45.660Z,99863.72
2023-01-21T13:16:13.003Z,99883.72
2023-01-21T13:18:43.810Z,99876.16
2023-01-21T13:21:31.926Z,99881.38
2023-01-21T13:24:22.562Z,99890.88
2023-01-21T13:27:20.523Z,99893.31
2023-01-21T13:30:19.572Z,99896.22
2023-01-21T13:32:54.351Z,99900.47
2023-01-21T13:35:26.868Z,99916.09
2023-01-21T13:38:23.288Z,99923.47
2023-01-21T13:40:53.031Z,99905.69
2023-01-21T13:43:54.821Z,99905.44
2023-01-21T13:46:42.156Z,99910.66
2023-01-21T13:49:08.874Z,99919.75
2023-01-21T13:51:50.384Z,99916.81
2023-01-21T13:54:38.370Z,99913.00
2023-01-21T13:57:32.497Z,99923.66
2023-01-21T14:00:12.830Z,99925.97
2023-01-21T14:02:52.390Z,99923.88
2023-01-21T14:05:19.130Z,99932.75
2023-01-21T14:08:06.267Z,99933.31
2023-01-21T14:10:43.527Z,99941.38
2023-01-21T14:13:51.092Z,99930.59
2023-01-21T14:16:52.633Z,99947.19
2023-01-21T14:19:33.985Z,99937.81
2023-01-21T14:22:45.663Z,99949.47
2023-01-21T14:25:18.533Z,99953.16
2023-01-21T14:28:07.189Z,99958.16
2023-01-21T14:31:13.380Z,99951.53
2023-01-21T14:34:17.845Z,99966.91
2023-01-21T14:37:08.871Z,99957.69
2023-01-21T14:39:41.758Z,99963.72
2023-01-21T14:42:14.844Z,99964.19
2023-01-21T14:44:53.715Z,99961.22
2023-01-21T14:47:29.585Z,99969.72
2023-01-21T14:49:58.281Z,99976.44
2023-01-21T14:52:43.823Z,99970.28
2023-01-21T14:55:37.107Z,99973.41
2023-01-21T14:58:04.092Z,99973.22
2023-01-21T15:00:37.867Z,99970.28
2023-01-21T15:03:16.681Z,99981.06
2023-01-21T15:05:51.831Z,99979.97
2023-01-21T15:08:21.289Z,99982.44
2023-01-21T15:11:02.327Z,99988.47
2023-01-21T15:13:35.594Z,99981.59
2023-01-21T15:16:24.007Z,99992.28
2023-01-21T15:19:21.035Z,99990.16
2023-01-21T15:21:59.934Z,99990.97
2023-01-21T15:24:31.659Z,99994.53
2023-01-21T15:27:19.662Z,99992.81
2023-01-21T15:29:46.362Z,99996.47
2023-01-21T15:32:23.006Z,99996.63
2023-01-21T15:34:54.322Z,99994.84
2023-01-21T15:37:23.527Z,100007.50
2023-01-21T15:39:54.114Z,99996.31
2023-01-21T15:42:34.855Z,100007.50
2023-01-21T15:45:30.348Z,100006.69
2023-01-21T15:48:12.391Z,100016.41
2023-01-21T15:50:51.187Z,100015.00
2023-01-21T15:53:34.313Z,100016.63
2023-01-21T15:56:19.651Z,100014.78
2023-01-21T15:59:01.131Z,100017.56
2023-01-21T16:01:38.903Z,100025.44
2023-01-21T16:04:35.480Z,100016.41
2023-01-21T16:07:02.200Z,100028.78
2023-01-21T16:10:10.559Z,100037.41
2023-01-21T16:12:55.314Z,100026.13
2023-01-21T16:15:35.796Z,100037.16
2023-01-21T16:18:32.923Z,100039.84
2023-01-21T16:21:03.128Z,100037.56
2023-01-21T16:23:35.538Z,100044.72
2023-01-21T16:26:03.033Z,100040.91
2023-01-21T16:28:44.240Z,100046.31
2023-01-21T16:31:11.292Z,100053.06
2023-01-21T16:33:38.237Z,100057.66
2023-01-21T16:36:09.452Z,100052.25
2023-01-21T16:38:37.725Z,100069.50
2023-01-21T16:41:07.428Z,100068.94
2023-01-21T16:43:59.207Z,100074.59
2023-01-21T16:46:34.736Z,100071.78
2023-01-21T16:49:04.804Z,100067.88
2023-01-21T16:51:37.093Z,100074.06
2023-01-21T16:54:46.625Z,100074.06
2023-01-21T16:57:15.974Z,100084.00
2023-01-21T16:59:45.695Z,100081.84
2023-01-21T17:02:31.912Z,100081.84
2023-01-21T17:05:04.723Z,100079.91
2023-01-21T17:07:43.095Z,100088.88
2023-01-21T17:10:19.351Z,100096.44
2023-01-21T17:12:59.299Z,100094.38
2023-01-21T17:15:38.536Z,100097.50
2023-01-21T17:18:10.221Z,100099.81
2023-01-21T17:20:42.182Z,100100.84
2023-01-21T17:23:25.829Z,100104.38
2023-01-21T17:26:03.855Z,100103.03
2023-01-21T17:28:57.792Z,100113.53
2023-01-21T17:31:24.495Z,100118.25
2023-01-21T17:34:15.453Z,100117.69
2023-01-21T17:36:44.167Z,100131.75
2023-01-21T17:39:12.009Z,100139.50
2023-01-21T17:41:45.446Z,100129.03
2023-01-21T17:44:24.487Z,100139.50
2023-01-21T17:46:54.210Z,100139.00
2023-01-21T17:49:24.193Z,100137.09
2023-01-21T17:51:53.282Z,100140.59
2023-01-21T17:54:29.900Z,100146.41
2023-01-21T17:56:58.597Z,100146.28
2023-01-21T17:59:26.517Z,100151.13
2023-01-21T18:01:53.626Z,100143.59
2023-01-21T18:04:20.749Z,100152.75
2023-01-21T18:06:47.690Z,100151.94
2023-01-21T18:09:19.698Z,100155.72
2023-01-21T18:11:47.837Z,100153.84
2023-01-21T18:14:18.090Z,100162.19
2023-01-21T18:16:46.086Z,100154.63
2023-01-21T18:19:28.737Z,100163.38
2023-01-21T18:21:56.023Z,100166.63
2023-01-21T18:24:23.068Z,100176.59
2023-01-21T18:26:49.989Z,100170.81
2023-01-21T18:29:18.297Z,100174.53
2023-01-21T18:31:46.004Z,100179.69
2023-01-21T18:34:12.922Z,100177.13
2023-01-21T18:36:41.342Z,100181.03
2023-01-21T18:39:17.087Z,100182.66
2023-01-21T18:41:44.423Z,100185.34
2023-01-21T18:44:11.203Z,100183.47
2023-01-21T18:46:43.379Z,100194.00
2023-01-21T18:49:17.976Z,100190.88
2023-01-21T18:51:45.545Z,100188.31
2023-01-21T18:54:14.633Z,100186.41
2023-01-21T18:56:44.461Z,100191.81
2023-01-21T18:59:19.227Z,100196.66
2023-01-21T19:01:46.518Z,100191.28
2023-01-21T19:04:15.981Z,100196.13
2023-01-21T19:06:43.851Z,100196.28
2023-01-21T19:09:24.678Z,100195.34
2023-01-21T19:11:52.039Z,100198.53
2023-01-21T19:14:18.888Z,100203.53
2023-01-21T19:16:46.397Z,100201.09
2023-01-21T19:19:15.933Z,100204.47
2023-01-21T19:21:43.160Z,100215.25
2023-01-21T19:24:12.036Z,100200.16
2023-01-21T19:26:39.277Z,100202.72
2023-01-21T19:29:13.417Z,100205.56
2023-01-21T19:31:40.337Z,100216.88
2023-01-21T19:34:08.401Z,100212.28
2023-01-21T19:36:35.232Z,100215.69
2023-01-21T19:39:01.999Z,100216.34
2023-01-21T19:41:28.674Z,100220.28
2023-01-21T19:43:56.386Z,100220.97
2023-01-21T19:46:23.993Z,100223.09
2023-01-21T19:48:53.531Z,100226.34
2023-01-21T19:51:20.419Z,100235.88
2023-01-21T19:53:49.800Z,100232.25
2023-01-21T19:56:24.276Z,100232.47
2023-01-21T19:58:51.731Z,100238.16
2023-01-21T20:01:18.577Z,100244.47
2023-01-21T20:03:58.681Z,100247.06
2023-01-21T20:06:27.629Z,100238.75
2023-01-21T20:08:54.467Z,100246.72
2023-01-21T20:11:22.055Z,100251.84
2023-01-21T20:13:48.946Z,100252.66
2023-01-21T20:16:18.028Z,100249.44
2023-01-21T20:18:46.249Z,100250.50
2023-01-21T20:21:13.259Z,100252.53
2023-01-21T20:23:40.583Z,100256.47
2023-01-21T20:26:12.521Z,100251.34
2023-01-21T20:28:44.398Z,100260.72
2023-01-21T20:31:12.633Z,100260.09
2023-01-21T20:33:39.549Z,100269.16
2023-01-21T20:36:13.401Z,100266.34
2023-01-21T20:38:42.164Z,100270.44
2023-01-21T20:41:09.720Z,100261.41
2023-01-21T20:43:36.410Z,100266.41
2023-01-21T20:46:07.307Z,100271.94
2023-01-21T20:48:40.572Z,100266.41
2023-01-21T20:51:07.567Z,100271.72
2023-01-21T20:53:34.610Z,100278.44
2023-01-21T20:56:23.246Z,100268.09
2023-01-21T20:58:50.441Z,100269.69
2023-01-21T21:01:20.200Z,100270.31
2023-01-21T21:03:48.101Z,100267.75
2023-01-21T21:06:19.227Z,100268.72
2023-01-21T21:08:47.143Z,100275.34
2023-01-21T21:11:18.139Z,100279.94
2023-01-21T21:13:48.299Z,100276.84
2023-01-21T21:16:21.065Z,100276.72
2023-01-21T21:18:48.468Z,100282.78
2023-01-21T21:21:16.111Z,100278.06
2023-01-21T21:23:46.637Z,100280.91
2023-01-21T21:26:24.125Z,100282.25
2023-01-21T21:28:54.751Z,100285.94
2023-01-21T21:31:22.346Z,100278.63
2023-01-21T21:33:49.173Z,100284.31
2023-01-21T21:36:21.100Z,100277.78
2023-01-21T21:38:49.069Z,100276.72
2023-01-21T21:41:44.289Z,100271.03
2023-01-21T21:44:11.769Z,100277.66
2023-01-21T21:46:59.056Z,100277.66
2023-01-21T21:49:26.456Z,100285.56
2023-01-21T21:51:53.508Z,100284.41
2023-01-21T21:54:23.782Z,100296.41
2023-01-21T21:56:50.704Z,100300.44
2023-01-21T21:59:17.836Z,100304.47
2023-01-21T22:01:45.084Z,100312.31
2023-01-21T22:04:12.018Z,100302.75
2023-01-21T22:06:38.879Z,100313.09
2023-01-21T22:09:06.252Z,100299.88
2023-01-21T22:11:33.130Z,100293.97
2023-01-21T22:14:04.098Z,100296.78
2023-01-21T22:16:33.258Z,100297.75
2023-01-21T22:19:00.929Z,100288.34
2023-01-21T22:21:31.972Z,100301.31
2023-01-21T22:24:00.851Z,100301.53
2023-01-21T22:26:29.931Z,100297.66
2023-01-21T22:28:57.066Z,100293.06
2023-01-21T22:31:29.849Z,100304.78
2023-01-21T22:33:58.267Z,100298.34
2023-01-21T22:36:27.700Z,100297.25
2023-01-21T22:38:54.453Z,100295.34
2023-01-21T22:41:23.104Z,100297.09
2023-01-21T22:43:50.741Z,100294.41
2023-01-21T22:46:23.449Z,100289.41
2023-01-21T22:48:50.716Z,100299.41
2023-01-21T22:51:19.336Z,100295.91
2023-01-21T22:53:46.396Z,100297.34
2023-01-21T22:56:17.570Z,100294.94
2023-01-21T22:58:46.932Z,100300.50
2023-01-21T23:01:29.328Z,100302.22
2023-01-21T23:03:56.124Z,100301.09
2023-01-21T23:06:22.868Z,100298.53
2023-01-21T23:08:50.248Z,100298.38
2023-01-21T23:11:18.745Z,100299.47
2023-01-21T23:13:46.696Z,100299.88
2023-01-21T23:16:19.074Z,100299.88
2023-01-21T23:18:46.121Z,100297.72
2023-01-21T23:21:20.194Z,100289.38
2023-01-21T23:23:47.420Z,100290.56
2023-01-21T23:26:14.507Z,100293.59
2023-01-21T23:28:41.696Z,100287.41
2023-01-21T23:31:12.965Z,100286.31
2023-01-21T23:33:41.816Z,100282.84
2023-01-21T23:36:11.182Z,100294.28
2023-01-21T23:38:37.942Z,100290.38
2023-01-21T23:41:08.986Z,100289.75
2023-01-21T23:43:38.902Z,100295.59
2023-01-21T23:46:08.302Z,100293.59
2023-01-21T23:48:35.063Z,100294.47
2023-01-21T23:51:06.138Z,100281.56
2023-01-21T23:53:35.634Z,100289.25
2023-01-21T23:56:06.547Z,100295.59
2023-01-21T23:58:36.003Z,100283.88
